createdAt,value
2022-12-01T00:00:59.443Z,149926.06
2022-12-01T00:03:26.052Z,149919.78
2022-12-01T00:06:04.474Z,149912.19
2022-12-01T00:08:30.782Z,149922.31
2022-12-01T00:11:07.062Z,149908.44
2022-12-01T00:13:33.977Z,149909.69
2022-12-01T00:16:14.123Z,149895.81
2022-12-01T00:18:40.587Z,149874.41
2022-12-01T00:21:13.661Z,149883.25
2022-12-01T00:23:46.736Z,149898.38
2022-12-01T00:26:13.101Z,149837.88
2022-12-01T00:28:39.056Z,149844.22
2022-12-01T00:31:11.985Z,149851.75
2022-12-01T00:33:38.959Z,149860.59
2022-12-01T00:36:05.386Z,149869.38
2022-12-01T00:38:32.232Z,149861.84
2022-12-01T00:40:57.985Z,149855.50
2022-12-01T00:43:24.334Z,149869.38
2022-12-01T00:45:50.992Z,149839.13
2022-12-01T00:48:17.637Z,149836.63
2022-12-01T00:50:43.951Z,149846.72
2022-12-01T00:53:09.861Z,149856.75
2022-12-01T00:55:35.697Z,149847.97
2022-12-01T00:58:01.570Z,149860.59
2022-12-01T01:00:27.432Z,149873.16
2022-12-01T01:02:53.724Z,149865.63
2022-12-01T01:05:19.902Z,149858.03
2022-12-01T01:07:45.745Z,149873.16
2022-12-01T01:10:11.696Z,149858.03
2022-12-01T01:12:37.642Z,149854.25
2022-12-01T01:15:05.352Z,149863.09
2022-12-01T01:17:32.572Z,149863.09
2022-12-01T01:19:58.381Z,149854.25
2022-12-01T01:22:24.566Z,149865.63
2022-12-01T01:24:50.392Z,149880.75
2022-12-01T01:27:16.342Z,149864.34
2022-12-01T01:29:42.176Z,149870.63
2022-12-01T01:32:08.365Z,149874.41
2022-12-01T01:34:34.277Z,149889.53
2022-12-01T01:37:00.139Z,149858.03
2022-12-01T01:39:26.338Z,149876.91
2022-12-01T01:41:52.131Z,149861.84
2022-12-01T01:44:49.473Z,149849.22
2022-12-01T01:47:19.963Z,149847.97
2022-12-01T01:49:46.397Z,149844.22
2022-12-01T01:52:13.730Z,149835.34
2022-12-01T01:54:45.406Z,149845.47
2022-12-01T01:57:16.133Z,149845.47
2022-12-01T01:59:50.642Z,149859.28
2022-12-01T02:02:16.856Z,149878.19
2022-12-01T02:04:49.463Z,149836.63
2022-12-01T02:07:17.909Z,149863.09
2022-12-01T02:09:44.248Z,149837.88
2022-12-01T02:12:38.231Z,149855.50
2022-12-01T02:15:41.355Z,149859.28
2022-12-01T02:18:49.604Z,149884.50
2022-12-01T02:21:21.175Z,149888.28
2022-12-01T02:24:17.946Z,149859.28
2022-12-01T02:27:06.250Z,149870.63
2022-12-01T02:29:40.787Z,149890.78
2022-12-01T02:32:35.265Z,149871.91
2022-12-01T02:35:14.905Z,149836.63
2022-12-01T02:38:06.046Z,149853.00
2022-12-01T02:40:31.870Z,149854.25
2022-12-01T02:43:06.962Z,149868.13
2022-12-01T02:45:49.597Z,149856.75
2022-12-01T02:48:26.040Z,149869.38
2022-12-01T02:50:54.381Z,149882.00
2022-12-01T02:53:21.344Z,149889.53
2022-12-01T02:55:57.182Z,149854.25
2022-12-01T02:58:23.048Z,149837.88
2022-12-01T03:01:12.167Z,149864.34
2022-12-01T03:04:14.956Z,149865.63
2022-12-01T03:07:16.226Z,149825.31
2022-12-01T03:09:54.255Z,149836.63
2022-12-01T03:12:29.160Z,149824.00
2022-12-01T03:15:18.378Z,149836.63
2022-12-01T03:17:46.479Z,149831.59
2022-12-01T03:20:21.254Z,149806.38
2022-12-01T03:22:55.891Z,149810.19
2022-12-01T03:25:25.720Z,149808.94
2022-12-01T03:28:20.192Z,149788.78
2022-12-01T03:30:44.930Z,149801.34
2022-12-01T03:33:20.386Z,149813.97
2022-12-01T03:36:14.331Z,149811.44
2022-12-01T03:38:46.160Z,149834.09
2022-12-01T03:41:17.482Z,149834.09
2022-12-01T03:43:50.975Z,149840.38
2022-12-01T03:46:19.629Z,149849.22
2022-12-01T03:48:45.974Z,149839.13
2022-12-01T03:51:24.943Z,149808.94
2022-12-01T03:53:58.903Z,149787.47
2022-12-01T03:56:29.969Z,149797.56
2022-12-01T03:58:58.506Z,149807.69
2022-12-01T04:01:25.980Z,149830.34
2022-12-01T04:03:51.810Z,149824.00
2022-12-01T04:06:17.619Z,149817.72
2022-12-01T04:08:43.438Z,149806.38
2022-12-01T04:11:32.497Z,149830.34
2022-12-01T04:13:58.818Z,149818.97
2022-12-01T04:16:24.969Z,149834.09
2022-12-01T04:18:50.877Z,149822.75
2022-12-01T04:21:16.724Z,149825.31
2022-12-01T04:24:00.916Z,149812.69
2022-12-01T04:26:28.728Z,149801.34
2022-12-01T04:28:54.550Z,149818.97
2022-12-01T04:31:20.829Z,149803.84
2022-12-01T04:33:46.707Z,149808.94
2022-12-01T04:36:12.558Z,149808.94
2022-12-01T04:38:39.723Z,149806.38
2022-12-01T04:41:12.840Z,149787.47
2022-12-01T04:43:39.487Z,149802.59
2022-12-01T04:46:06.510Z,149795.06
2022-12-01T04:48:35.237Z,149805.13
2022-12-01T04:51:02.675Z,149782.44
2022-12-01T04:53:29.330Z,149778.69
2022-12-01T04:55:56.518Z,149801.34
2022-12-01T04:58:22.309Z,149793.81
2022-12-01T05:00:48.251Z,149784.97
2022-12-01T05:03:15.291Z,149786.22
2022-12-01T05:05:41.566Z,149806.38
2022-12-01T05:08:07.716Z,149800.09
2022-12-01T05:10:37.870Z,149781.19
2022-12-01T05:13:05.485Z,149787.47
2022-12-01T05:15:31.464Z,149748.44
2022-12-01T05:17:57.875Z,149729.56
2022-12-01T05:20:43.803Z,149718.25
2022-12-01T05:23:15.160Z,149699.38
2022-12-01T05:25:42.544Z,149727.03
2022-12-01T05:28:08.316Z,149710.66
2022-12-01T05:30:34.108Z,149718.25
2022-12-01T05:32:59.947Z,149703.13
2022-12-01T05:35:26.757Z,149703.13
2022-12-01T05:37:52.618Z,149714.44
2022-12-01T05:40:18.681Z,149684.25
2022-12-01T05:42:44.531Z,149680.44
2022-12-01T05:45:10.486Z,149714.44
2022-12-01T05:47:36.267Z,149705.66
2022-12-01T05:50:05.805Z,149715.69
2022-12-01T05:52:35.615Z,149701.88
2022-12-01T05:55:05.447Z,149696.81
2022-12-01T05:57:32.365Z,149700.63
2022-12-01T05:59:58.348Z,149685.50
2022-12-01T06:02:26.357Z,149703.13
2022-12-01T06:04:52.929Z,149738.41
2022-12-01T06:07:19.704Z,149698.06
2022-12-01T06:09:45.836Z,149642.66
2022-12-01T06:12:12.356Z,149666.63
2022-12-01T06:14:38.344Z,149666.63
2022-12-01T06:17:04.473Z,149672.91
2022-12-01T06:19:30.878Z,149698.06
2022-12-01T06:21:57.283Z,149706.91
2022-12-01T06:24:23.256Z,149703.13
2022-12-01T06:26:49.208Z,149722.03
2022-12-01T06:29:15.320Z,149676.66
2022-12-01T06:31:41.477Z,149705.66
2022-12-01T06:34:07.860Z,149694.28
2022-12-01T06:36:34.095Z,149708.16
2022-12-01T06:38:59.914Z,149710.66
2022-12-01T06:41:25.751Z,149686.75
2022-12-01T06:43:51.642Z,149679.19
2022-12-01T06:46:17.800Z,149674.16
2022-12-01T06:48:44.239Z,149651.50
2022-12-01T06:51:11.081Z,149646.47
2022-12-01T06:53:37.042Z,149679.19
2022-12-01T06:56:04.534Z,149700.63
2022-12-01T06:58:31.547Z,149684.25
2022-12-01T07:00:58.360Z,149657.78
2022-12-01T07:03:24.445Z,149674.16
2022-12-01T07:05:58.472Z,149679.19
2022-12-01T07:08:25.615Z,149667.88
2022-12-01T07:11:02.417Z,149657.78
2022-12-01T07:13:33.039Z,149680.44
2022-12-01T07:15:59.925Z,149646.47
2022-12-01T07:18:25.660Z,149659.03
2022-12-01T07:20:51.488Z,149662.81
2022-12-01T07:23:17.310Z,149677.94
2022-12-01T07:25:43.195Z,149670.38
2022-12-01T07:28:09.088Z,149675.41
2022-12-01T07:30:35.143Z,149669.13
2022-12-01T07:33:01.269Z,149656.53
2022-12-01T07:35:27.134Z,149642.66
2022-12-01T07:37:56.174Z,149632.63
2022-12-01T07:40:22.464Z,149601.13
2022-12-01T07:42:48.596Z,149622.53
2022-12-01T07:45:14.395Z,149626.31
2022-12-01T07:47:40.636Z,149606.16
2022-12-01T07:50:07.072Z,149641.41
2022-12-01T07:52:32.868Z,149630.13
2022-12-01T07:54:58.702Z,149609.97
2022-12-01T07:57:24.558Z,149611.22
2022-12-01T07:59:52.244Z,149611.22
2022-12-01T08:02:18.170Z,149640.16
2022-12-01T08:04:44.048Z,149666.63
2022-12-01T08:07:09.833Z,149611.22
2022-12-01T08:09:35.761Z,149627.59
2022-12-01T08:12:01.588Z,149612.50
2022-12-01T08:14:27.335Z,149594.88
2022-12-01T08:16:53.213Z,149674.16
2022-12-01T08:19:19.133Z,149637.66
2022-12-01T08:21:44.969Z,149627.59
2022-12-01T08:24:10.958Z,149599.88
2022-12-01T08:26:36.923Z,149606.16
2022-12-01T08:29:02.914Z,149617.50
2022-12-01T08:31:32.341Z,149617.50
2022-12-01T08:33:59.385Z,149598.63
2022-12-01T08:36:25.295Z,149604.91
2022-12-01T08:38:53.473Z,149637.66
2022-12-01T08:41:20.546Z,149630.13
2022-12-01T08:44:02.099Z,149657.78
2022-12-01T08:46:32.747Z,149628.84
2022-12-01T08:48:59.218Z,149615.00
2022-12-01T08:51:26.178Z,149636.38
2022-12-01T08:53:53.528Z,149646.47
2022-12-01T08:56:22.437Z,149657.78
2022-12-01T08:58:49.648Z,149661.56
2022-12-01T09:01:16.426Z,149666.63
2022-12-01T09:03:43.443Z,149662.81
2022-12-01T09:06:13.548Z,149618.75
2022-12-01T09:08:40.415Z,149626.31
2022-12-01T09:11:15.244Z,149618.75
2022-12-01T09:13:42.460Z,149615.00
2022-12-01T09:16:12.409Z,149615.00
2022-12-01T09:18:38.786Z,149623.78
2022-12-01T09:21:12.993Z,149641.41
2022-12-01T09:23:39.233Z,149604.91
2022-12-01T09:26:10.844Z,149609.97
2022-12-01T09:28:39.414Z,149636.38
2022-12-01T09:31:08.043Z,149647.75
2022-12-01T09:33:34.472Z,149632.63
2022-12-01T09:36:02.084Z,149660.28
2022-12-01T09:38:28.924Z,149638.91
2022-12-01T09:40:56.009Z,149662.81
2022-12-01T09:43:29.076Z,149642.66
2022-12-01T09:46:02.202Z,149674.16
2022-12-01T09:48:42.021Z,149671.66
2022-12-01T09:51:16.419Z,149695.56
2022-12-01T09:53:43.979Z,149676.66
2022-12-01T09:56:41.728Z,149656.53
2022-12-01T09:59:17.146Z,149649.00
2022-12-01T10:01:45.878Z,149679.19
2022-12-01T10:04:30.693Z,149649.00
2022-12-01T10:07:03.038Z,149641.41
2022-12-01T10:09:52.786Z,149691.78
2022-12-01T10:12:23.032Z,149693.03
2022-12-01T10:14:50.012Z,149688.00
2022-12-01T10:17:34.507Z,149640.16
2022-12-01T10:20:09.245Z,149654.03
2022-12-01T10:22:53.716Z,149661.56
2022-12-01T10:25:25.818Z,149677.94
2022-12-01T10:28:11.828Z,149710.66
2022-12-01T10:30:46.949Z,149685.50
2022-12-01T10:33:24.030Z,149645.19
2022-12-01T10:35:50.106Z,149660.28
2022-12-01T10:38:26.640Z,149674.16
2022-12-01T10:41:00.302Z,149656.53
2022-12-01T10:43:38.569Z,149683.00
2022-12-01T10:46:25.163Z,149684.25
2022-12-01T10:48:56.391Z,149681.75
2022-12-01T10:51:23.690Z,149723.28
2022-12-01T10:53:50.047Z,149716.94
2022-12-01T10:56:19.227Z,149711.94
2022-12-01T10:58:49.556Z,149722.03
2022-12-01T11:01:24.142Z,149737.13
2022-12-01T11:04:22.430Z,149718.25
2022-12-01T11:06:49.630Z,149710.66
2022-12-01T11:09:26.036Z,149675.41
2022-12-01T11:11:57.987Z,149683.00
2022-12-01T11:14:43.097Z,149694.28
2022-12-01T11:17:16.507Z,149685.50
2022-12-01T11:19:43.150Z,149681.75
2022-12-01T11:22:22.638Z,149688.00
2022-12-01T11:24:54.623Z,149691.78
2022-12-01T11:27:23.563Z,149728.31
2022-12-01T11:29:52.507Z,149713.19
2022-12-01T11:32:30.643Z,149718.25
2022-12-01T11:35:00.323Z,149752.22
2022-12-01T11:37:38.399Z,149766.06
2022-12-01T11:40:24.894Z,149774.91
2022-12-01T11:42:54.014Z,149781.19
2022-12-01T11:45:27.885Z,149788.78
2022-12-01T11:48:14.852Z,149768.59
2022-12-01T11:50:42.172Z,149709.41
2022-12-01T11:53:33.173Z,149701.88
2022-12-01T11:56:15.892Z,149690.53
2022-12-01T11:58:43.786Z,149694.28
2022-12-01T12:01:24.592Z,149740.91
2022-12-01T12:04:13.804Z,149708.16
2022-12-01T12:07:24.369Z,149706.91
2022-12-01T12:10:08.367Z,149698.06
2022-12-01T12:13:15.057Z,149725.78
2022-12-01T12:16:04.391Z,149733.31
2022-12-01T12:18:43.672Z,149752.22
2022-12-01T12:21:40.859Z,149745.94
2022-12-01T12:24:31.819Z,149699.38
2022-12-01T12:27:03.567Z,149685.50
2022-12-01T12:29:49.811Z,149732.06
2022-12-01T12:32:21.607Z,149693.03
2022-12-01T12:34:54.124Z,149724.53
2022-12-01T12:37:32.676Z,149739.66
2022-12-01T12:40:23.370Z,149723.28
2022-12-01T12:43:26.155Z,149713.19
2022-12-01T12:46:12.306Z,149718.25
2022-12-01T12:49:18.031Z,149716.94
2022-12-01T12:51:48.619Z,149750.97
2022-12-01T12:54:26.149Z,149777.44
2022-12-01T12:57:01.504Z,149766.06
2022-12-01T12:59:40.146Z,149774.91
2022-12-01T13:02:15.030Z,149790.03
2022-12-01T13:05:04.516Z,149718.25
2022-12-01T13:07:57.843Z,149728.31
2022-12-01T13:10:39.016Z,149749.69
2022-12-01T13:13:51.121Z,149725.78
2022-12-01T13:16:26.406Z,149723.28
2022-12-01T13:19:03.513Z,149670.38
2022-12-01T13:21:36.593Z,149680.44
2022-12-01T13:24:04.486Z,149698.06
2022-12-01T13:26:34.138Z,149703.13
2022-12-01T13:29:05.685Z,149729.56
2022-12-01T13:31:43.150Z,149709.41
2022-12-01T13:34:38.328Z,149688.00
2022-12-01T13:37:04.759Z,149664.09
2022-12-01T13:39:37.308Z,149672.91
2022-12-01T13:42:20.767Z,149670.38
2022-12-01T13:44:54.292Z,149664.09
2022-12-01T13:47:20.159Z,149669.13
2022-12-01T13:49:48.678Z,149674.16
2022-12-01T13:52:17.880Z,149693.03
2022-12-01T13:55:00.731Z,149703.13
2022-12-01T13:57:28.739Z,149698.06
2022-12-01T13:59:57.523Z,149685.50
2022-12-01T14:02:24.932Z,149699.38
2022-12-01T14:04:51.511Z,149665.38
2022-12-01T14:07:27.131Z,149662.81
2022-12-01T14:09:55.826Z,149652.75
2022-12-01T14:12:28.537Z,149646.47
2022-12-01T14:15:01.383Z,149669.13
2022-12-01T14:17:30.929Z,149677.94
2022-12-01T14:20:12.253Z,149662.81
2022-12-01T14:22:43.213Z,149641.41
2022-12-01T14:25:21.776Z,149660.28
2022-12-01T14:27:57.146Z,149581.00
2022-12-01T14:30:41.323Z,149599.88
2022-12-01T14:33:44.578Z,149579.75
2022-12-01T14:36:22.345Z,149586.03
2022-12-01T14:38:51.835Z,149593.59
2022-12-01T14:41:40.598Z,149558.38
2022-12-01T14:44:26.597Z,149560.88
2022-12-01T14:46:55.042Z,149574.72
2022-12-01T14:49:24.882Z,149533.16
2022-12-01T14:51:55.907Z,149552.03
2022-12-01T14:54:29.423Z,149538.22
2022-12-01T14:57:04.338Z,149544.50
2022-12-01T14:59:32.391Z,149505.50
2022-12-01T15:02:08.369Z,149514.28
2022-12-01T15:04:55.207Z,149514.28
2022-12-01T15:07:22.352Z,149503.00
2022-12-01T15:09:59.575Z,149526.88
2022-12-01T15:12:27.396Z,149503.00
2022-12-01T15:14:53.620Z,149514.28
2022-12-01T15:17:31.684Z,149513.03
2022-12-01T15:19:58.392Z,149494.16
2022-12-01T15:22:29.843Z,149499.19
2022-12-01T15:25:19.936Z,149509.28
2022-12-01T15:27:45.908Z,149472.78
2022-12-01T15:30:13.812Z,149448.88
2022-12-01T15:32:45.197Z,149484.06
2022-12-01T15:35:19.502Z,149466.50
2022-12-01T15:37:47.058Z,149486.63
2022-12-01T15:43:15.995Z,149487.88
2022-12-01T15:45:50.184Z,149446.34
2022-12-01T15:48:24.088Z,149422.44
2022-12-01T15:51:11.357Z,149418.69
2022-12-01T15:53:45.126Z,149447.59
2022-12-01T15:56:11.703Z,149450.16
2022-12-01T15:58:46.736Z,149453.91
2022-12-01T16:01:16.789Z,149440.06
2022-12-01T16:03:45.555Z,149438.81
2022-12-01T16:06:12.159Z,149435.03
2022-12-01T16:08:38.286Z,149418.69
2022-12-01T16:11:18.174Z,149424.94
2022-12-01T16:13:59.736Z,149427.47
2022-12-01T16:16:38.115Z,149404.84
2022-12-01T16:19:07.000Z,149418.69
2022-12-01T16:21:42.078Z,149416.16
2022-12-01T16:24:33.249Z,149421.19
2022-12-01T16:27:05.964Z,149424.94
2022-12-01T16:30:07.670Z,149441.31
2022-12-01T16:32:37.624Z,149440.06
2022-12-01T16:35:05.625Z,149436.28
2022-12-01T16:37:31.647Z,149466.50
2022-12-01T16:39:58.025Z,149426.22
2022-12-01T16:42:24.240Z,149438.81
2022-12-01T16:44:51.050Z,149411.09
2022-12-01T16:47:18.429Z,149406.09
2022-12-01T16:49:44.345Z,149418.69
2022-12-01T16:54:56.505Z,149428.72
2022-12-01T16:57:22.423Z,149380.94
2022-12-01T16:59:48.399Z,149426.22
2022-12-01T17:02:14.379Z,149419.94
2022-12-01T17:04:40.409Z,149398.56
2022-12-01T17:07:06.242Z,149367.09
2022-12-01T17:09:32.120Z,149349.50
2022-12-01T17:11:58.557Z,149359.56
2022-12-01T17:14:24.772Z,149390.97
2022-12-01T17:16:50.828Z,149387.22
2022-12-01T17:19:17.231Z,149380.94
2022-12-01T17:21:43.049Z,149372.13
2022-12-01T17:24:09.507Z,149375.88
2022-12-01T17:26:35.606Z,149416.16
2022-12-01T17:29:01.978Z,149370.88
2022-12-01T17:31:28.090Z,149369.59
2022-12-01T17:33:54.261Z,149358.28
2022-12-01T17:36:20.188Z,149341.97
2022-12-01T17:38:46.497Z,149330.63
2022-12-01T17:41:15.533Z,149340.66
2022-12-01T17:43:41.972Z,149346.97
2022-12-01T17:46:09.890Z,149350.75
2022-12-01T17:48:37.826Z,149358.28
2022-12-01T17:51:05.437Z,149338.16
2022-12-01T17:53:32.618Z,149318.03
2022-12-01T17:55:58.729Z,149318.03
2022-12-01T17:58:24.697Z,149352.00
2022-12-01T18:00:52.811Z,149374.63
2022-12-01T18:03:19.300Z,149388.47
2022-12-01T18:06:00.030Z,149403.56
2022-12-01T18:08:28.155Z,149398.56
2022-12-01T18:10:54.672Z,149373.38
2022-12-01T18:13:21.828Z,149368.34
2022-12-01T18:15:48.928Z,149370.88
2022-12-01T18:18:15.060Z,149348.22
2022-12-01T18:20:42.338Z,149354.50
2022-12-01T18:23:09.379Z,149372.13
2022-12-01T18:25:36.693Z,149363.34
2022-12-01T18:28:03.695Z,149350.75
2022-12-01T18:30:30.239Z,149338.16
2022-12-01T18:32:57.711Z,149375.88
2022-12-01T18:35:27.420Z,149370.88
2022-12-01T18:37:56.400Z,149388.47
2022-12-01T18:40:23.585Z,149365.84
2022-12-01T18:42:50.031Z,149365.84
2022-12-01T18:45:20.847Z,149330.63
2022-12-01T18:47:47.386Z,149316.78
2022-12-01T18:50:13.402Z,149315.53
2022-12-01T18:52:39.872Z,149321.78
2022-12-01T18:55:06.568Z,149313.00
2022-12-01T18:57:32.608Z,149328.13
2022-12-01T18:59:58.503Z,149353.25
2022-12-01T19:02:24.552Z,149290.38
2022-12-01T19:04:51.526Z,149319.28
2022-12-01T19:07:17.575Z,149302.94
2022-12-01T19:09:43.462Z,149290.38
2022-12-01T19:12:09.408Z,149320.53
2022-12-01T19:14:35.267Z,149302.94
2022-12-01T19:17:01.433Z,149339.41
2022-12-01T19:19:27.341Z,149282.81
2022-12-01T19:21:53.458Z,149297.91
2022-12-01T19:24:19.482Z,149306.75
2022-12-01T19:26:45.314Z,149335.63
2022-12-01T19:29:11.420Z,149294.16
2022-12-01T19:31:37.605Z,149285.31
2022-12-01T19:34:03.922Z,149297.91
2022-12-01T19:36:30.449Z,149281.56
2022-12-01T19:38:57.837Z,149335.63
2022-12-01T19:41:24.710Z,149323.06
2022-12-01T19:43:52.377Z,149315.53
2022-12-01T19:46:22.069Z,149309.25
2022-12-01T19:48:53.833Z,149296.66
2022-12-01T19:51:24.877Z,149294.16
2022-12-01T19:53:52.392Z,149319.28
2022-12-01T19:56:18.359Z,149300.44
2022-12-01T19:58:44.683Z,149301.69
2022-12-01T20:01:13.271Z,149299.16
2022-12-01T20:03:40.020Z,149301.69
2022-12-01T20:06:09.687Z,149271.53
2022-12-01T20:08:36.283Z,149255.19
2022-12-01T20:11:03.995Z,149266.47
2022-12-01T20:13:31.942Z,149291.66
2022-12-01T20:16:12.752Z,149257.69
2022-12-01T20:18:39.969Z,149233.78
2022-12-01T20:21:18.383Z,149247.63
2022-12-01T20:23:57.008Z,149233.78
2022-12-01T20:26:30.187Z,149212.41
2022-12-01T20:29:00.284Z,149223.75
2022-12-01T20:31:28.360Z,149255.19
2022-12-01T20:33:56.637Z,149247.63
2022-12-01T20:36:23.309Z,149202.38
2022-12-01T20:38:49.388Z,149208.63
2022-12-01T20:41:16.274Z,149189.78
2022-12-01T20:43:42.189Z,149163.41
2022-12-01T20:46:08.720Z,149159.59
2022-12-01T20:48:34.765Z,149143.25
2022-12-01T20:51:03.021Z,149186.03
2022-12-01T20:53:29.572Z,149175.94
2022-12-01T20:55:55.676Z,149162.13
2022-12-01T20:58:21.927Z,149159.59
2022-12-01T21:00:48.091Z,149143.25
2022-12-01T21:03:14.422Z,149131.97
2022-12-01T21:05:42.915Z,149125.66
2022-12-01T21:08:12.197Z,149115.63
2022-12-01T21:10:40.119Z,149108.06
2022-12-01T21:13:38.855Z,149116.88
2022-12-01T21:16:14.048Z,149105.56
2022-12-01T21:18:54.578Z,149126.97
2022-12-01T21:21:26.946Z,149118.16
2022-12-01T21:24:07.751Z,149131.97
2022-12-01T21:26:36.413Z,149139.50
2022-12-01T21:29:28.199Z,149169.69
2022-12-01T21:32:04.574Z,149120.66
2022-12-01T21:34:34.931Z,149145.81
2022-12-01T21:37:05.985Z,149131.97
2022-12-01T21:39:33.985Z,149160.84
2022-12-01T21:42:13.237Z,149131.97
2022-12-01T21:44:39.432Z,149133.22
2022-12-01T21:47:21.293Z,149165.94
2022-12-01T21:49:56.315Z,149168.44
2022-12-01T21:52:29.216Z,149169.69
2022-12-01T21:55:21.482Z,149163.41
2022-12-01T21:57:49.845Z,149125.66
2022-12-01T22:00:30.947Z,149120.66
2022-12-01T22:03:08.981Z,149128.22
2022-12-01T22:05:40.735Z,149160.84
2022-12-01T22:08:06.957Z,149172.19
2022-12-01T22:10:55.421Z,149140.75
2022-12-01T22:13:26.815Z,149154.59
2022-12-01T22:15:54.485Z,149134.47
2022-12-01T22:18:28.870Z,149163.41
2022-12-01T22:20:55.615Z,149153.34
2022-12-01T22:23:28.749Z,149124.41
2022-12-01T22:25:54.751Z,149137.00
2022-12-01T22:28:24.228Z,149160.84
2022-12-01T22:30:51.482Z,149160.84
2022-12-01T22:33:23.802Z,149162.13
2022-12-01T22:35:52.097Z,149155.84
2022-12-01T22:38:28.189Z,149178.47
2022-12-01T22:41:02.677Z,149194.81
2022-12-01T22:43:41.113Z,149208.63
2022-12-01T22:46:23.783Z,149187.28
2022-12-01T22:49:20.324Z,149184.78
2022-12-01T22:51:50.694Z,149183.53
2022-12-01T22:54:16.525Z,149196.06
2022-12-01T22:57:09.174Z,149189.78
2022-12-01T22:59:37.387Z,149197.31
2022-12-01T23:02:21.324Z,149181.00
2022-12-01T23:04:51.412Z,149163.41
2022-12-01T23:07:34.843Z,149189.78
2022-12-01T23:10:08.653Z,149182.25
2022-12-01T23:12:35.684Z,149139.50
2022-12-01T23:15:20.719Z,149163.41
2022-12-01T23:17:46.874Z,149152.09
2022-12-01T23:20:27.409Z,149174.69
2022-12-01T23:22:55.119Z,149186.03
2022-12-01T23:25:22.863Z,149191.03
2022-12-01T23:27:51.459Z,149189.78
2022-12-01T23:30:20.453Z,149167.16
2022-12-01T23:32:56.115Z,149167.16
2022-12-01T23:35:22.333Z,149144.56
2022-12-01T23:37:48.464Z,149201.13
2022-12-01T23:40:18.044Z,149153.34
2022-12-01T23:42:44.016Z,149139.50
2022-12-01T23:45:22.572Z,149158.34
2022-12-01T23:47:49.380Z,149135.75
2022-12-01T23:50:19.683Z,149137.00
2022-12-01T23:52:45.651Z,149134.47
2022-12-01T23:55:19.821Z,149196.06
2022-12-01T23:57:45.678Z,149184.78
